Time;durP1;ratioP1;P1;durP2;ratioP2;P2;SDS_P1;SDS_P2;PMS_P1;PMS_P2;Temp;Humidity;BMP_temperature;BMP_pressure;BME280_temperature;BME280_humidity;BME280_pressure;Samples;Min_cycle;Max_cycle;Signal;HPM_P1;HPM_P2
2023/06/19 00:00:20;;;;;;;6.65;4.85;;;25.00;50.70;;;24.49;43.12;99864.56;4953619;29;20043;-87
2023/06/19 00:02:47;;;;;;;7.70;5.20;;;25.00;50.70;;;24.49;42.71;99864.56;4949386;23;20053;-76
2023/06/19 00:05:15;;;;;;;8.05;4.93;;;25.00;50.30;;;24.49;42.80;99869.22;4948362;28;20493;-78
2023/06/19 00:07:42;;;;;;;7.80;4.90;;;25.00;50.20;;;24.47;43.10;99853.19;4953467;29;20150;-78
2023/06/19 00:10:11;;;;;;;8.18;5.45;;;25.00;50.80;;;24.45;43.32;99854.63;4952783;29;20047;-77
2023/06/19 00:12:38;;;;;;;6.82;4.80;;;25.00;50.60;;;24.40;43.84;99848.22;4944431;28;20051;-77
2023/06/19 00:15:09;;;;;;;7.28;5.00;;;25.00;51.20;;;24.38;44.42;99852.38;4933237;29;20044;-78
2023/06/19 00:17:37;;;;;;;7.22;4.97;;;24.90;51.80;;;24.35;44.60;99850.25;4912733;29;20142;-77
2023/06/19 00:20:06;;;;;;;6.47;5.00;;;24.90;52.00;;;24.33;44.27;99852.50;4933785;29;20047;-78
2023/06/19 00:22:33;;;;;;;7.07;4.88;;;24.90;51.80;;;24.30;44.60;99861.28;4931750;29;20516;-77
2023/06/19 00:25:01;;;;;;;7.78;4.60;;;24.80;52.10;;;24.28;44.32;99858.09;4932932;29;20146;-78
2023/06/19 00:27:29;;;;;;;6.65;4.75;;;24.80;51.90;;;24.24;44.72;99857.91;4929453;29;20485;-77
2023/06/19 00:30:01;;;;;;;9.80;5.43;;;24.80;52.20;;;24.22;44.81;99859.38;4914175;29;20056;-77
2023/06/19 00:32:28;;;;;;;7.30;5.05;;;24.80;52.60;;;24.15;45.03;99863.34;4914787;29;20115;-77
2023/06/19 00:34:57;;;;;;;7.25;4.75;;;24.70;52.60;;;24.12;45.21;99861.28;4915963;29;20131;-77
2023/06/19 00:37:31;;;;;;;7.13;4.57;;;24.70;53.00;;;24.07;45.25;99860.63;4906623;29;20048;-78
2023/06/19 00:40:00;;;;;;;6.30;4.85;;;24.70;53.00;;;24.03;45.40;99865.88;4928097;29;20052;-77
2023/06/19 00:42:29;;;;;;;6.85;5.07;;;24.60;53.10;;;23.99;45.76;99866.81;4940657;28;20450;-77
2023/06/19 00:44:56;;;;;;;7.07;4.95;;;24.50;53.40;;;23.94;45.70;99869.69;4937738;28;20047;-77
2023/06/19 00:47:25;;;;;;;8.02;5.10;;;24.50;53.70;;;23.90;45.93;99877.69;4933542;29;20150;-77
2023/06/19 00:49:52;;;;;;;7.80;5.30;;;24.50;53.90;;;23.86;46.02;99879.44;4931380;29;20051;-77
2023/06/19 00:52:20;;;;;;;7.40;5.15;;;24.40;54.00;;;23.81;46.50;99883.09;4924646;29;20143;-77
2023/06/19 00:54:47;;;;;;;7.88;5.18;;;24.40;54.40;;;23.77;46.51;99881.34;4935098;29;20095;-77
2023/06/19 00:57:14;;;;;;;6.50;4.97;;;24.30;54.40;;;23.73;46.57;99883.06;4932352;29;20047;-77
2023/06/19 00:59:43;;;;;;;8.35;5.55;;;24.30;54.60;;;23.70;46.70;99883.69;4931364;29;20103;-78
2023/06/19 01:02:11;;;;;;;9.05;5.75;;;24.20;54.90;;;23.66;46.82;99891.66;4932186;29;20138;-78
2023/06/19 01:04:38;;;;;;;8.45;5.65;;;24.20;54.80;;;23.62;46.97;99887.97;4929710;29;20138;-77
2023/06/19 01:07:13;;;;;;;7.53;5.38;;;24.20;55.00;;;23.57;47.19;99894.34;4920336;29;20166;-77
2023/06/19 01:09:47;;;;;;;6.90;5.40;;;24.10;55.50;;;23.52;47.42;99891.75;4899864;29;20082;-78
2023/06/19 01:12:20;;;;;;;7.43;5.30;;;24.10;55.60;;;23.50;47.19;99882.28;4931297;29;20056;-77
2023/06/19 01:15:01;;;;;;;8.20;5.78;;;24.00;55.30;;;23.48;47.33;99884.53;4932192;29;20082;-78
2023/06/19 01:17:29;;;;;;;7.72;5.82;;;24.00;55.50;;;23.45;47.49;99887.84;4927531;29;20135;-77
2023/06/19 01:19:57;;;;;;;9.00;5.40;;;24.00;55.50;;;23.42;47.56;99889.25;4929632;29;20075;-78
2023/06/19 01:22:28;;;;;;;6.82;4.90;;;23.90;55.70;;;23.39;47.87;99884.47;4931827;29;20435;-78
2023/06/19 01:24:55;;;;;;;7.78;5.47;;;23.90;56.00;;;23.37;47.70;99881.22;4928710;29;20076;-78
2023/06/19 01:27:24;;;;;;;7.00;5.70;;;23.90;56.20;;;23.34;47.96;99881.88;4915225;29;20051;-78
2023/06/19 01:29:53;;;;;;;7.15;5.45;;;23.90;56.20;;;23.32;47.96;99886.81;4914760;29;20054;-77
2023/06/19 01:32:28;;;;;;;6.70;5.32;;;23.80;56.30;;;23.28;48.15;99886.63;4930977;29;20058;-78
2023/06/19 01:34:58;;;;;;;7.05;5.55;;;23.80;56.60;;;23.23;48.19;99873.16;4931146;29;20075;-78
2023/06/19 01:37:28;;;;;;;7.35;5.40;;;23.80;56.80;;;23.23;48.36;99869.59;4913014;29;20150;-77
2023/06/19 01:39:59;;;;;;;6.70;5.40;;;23.80;57.00;;;23.21;48.86;99867.22;4914260;29;20047;-78
2023/06/19 01:42:27;;;;;;;6.72;5.28;;;23.70;57.40;;;23.19;48.59;99874.09;4931956;28;20058;-78
2023/06/19 01:44:55;;;;;;;8.73;5.50;;;23.70;57.50;;;23.17;48.88;99865.41;4931311;29;20076;-78
2023/06/19 01:47:22;;;;;;;9.07;5.75;;;23.70;57.60;;;23.14;48.66;99869.56;4922879;29;20134;-78
2023/06/19 01:49:50;;;;;;;6.32;5.15;;;23.70;57.40;;;23.11;48.91;99870.19;4921512;29;20044;-78
2023/06/19 01:52:17;;;;;;;7.70;5.55;;;23.60;57.50;;;23.09;48.74;99872.41;4939830;28;20135;-78
2023/06/19 01:54:46;;;;;;;8.43;5.70;;;23.60;57.30;;;23.05;48.79;99869.50;4934154;29;20504;-78
2023/06/19 01:57:15;;;;;;;8.40;5.78;;;23.60;57.40;;;23.03;49.11;99862.75;4931971;29;20339;-78
2023/06/19 01:59:43;;;;;;;8.95;5.75;;;23.60;57.80;;;23.00;49.06;99866.91;4914047;29;20126;-78
2023/06/19 02:02:10;;;;;;;8.30;5.60;;;23.50;57.80;;;22.98;49.00;99873.75;4936700;29;20055;-78
2023/06/19 02:04:38;;;;;;;7.97;5.80;;;23.50;57.90;;;22.96;49.28;99867.84;4930964;29;20052;-77
2023/06/19 02:07:06;;;;;;;7.97;5.70;;;23.50;58.00;;;22.93;49.32;99863.81;4929123;29;20138;-78
2023/06/19 02:09:33;;;;;;;8.10;5.78;;;23.50;58.20;;;22.90;49.53;99864.44;4936707;29;20047;-78
2023/06/19 02:12:02;;;;;;;8.85;6.30;;;23.50;58.30;;;22.88;49.68;99861.16;4920284;29;20575;-77
2023/06/19 02:14:29;;;;;;;8.25;5.80;;;23.40;58.60;;;22.85;49.50;99875.41;4929376;29;20039;-78
2023/06/19 02:16:56;;;;;;;8.18;5.68;;;23.30;58.30;;;22.84;49.34;99879.25;4927896;29;20595;-78
2023/06/19 02:19:23;;;;;;;7.45;5.57;;;23.30;58.40;;;22.80;49.80;99886.41;4938498;28;20134;-78
2023/06/19 02:21:50;;;;;;;8.45;5.60;;;23.30;58.60;;;22.78;49.65;99897.56;4936283;28;20047;-78
2023/06/19 02:24:18;;;;;;;8.23;5.45;;;23.30;58.60;;;22.78;49.80;99899.47;4929789;29;20039;-77
2023/06/19 02:26:45;;;;;;;7.03;5.78;;;23.30;58.60;;;22.75;49.64;99900.09;4935225;29;20551;-77
2023/06/19 02:29:14;;;;;;;8.35;5.95;;;23.30;58.90;;;22.75;49.96;99900.09;4944608;28;20106;-78
2023/06/19 02:31:42;;;;;;;9.20;6.05;;;23.20;58.80;;;22.72;49.82;99906.16;4911506;29;20055;-77
2023/06/19 02:34:10;;;;;;;9.45;5.97;;;23.20;59.00;;;22.70;50.10;99911.09;4930131;29;20051;-78
2023/06/19 02:36:37;;;;;;;7.10;5.50;;;23.20;59.00;;;22.67;50.02;99909.78;4930534;29;20044;-77
2023/06/19 02:39:06;;;;;;;8.93;5.57;;;23.20;59.00;;;22.65;49.69;99920.16;4930418;29;20118;-77
2023/06/19 02:41:33;;;;;;;7.30;5.63;;;23.20;58.90;;;22.65;49.91;99919.38;4938621;28;20058;-78
2023/06/19 02:44:00;;;;;;;7.57;5.40;;;23.20;58.70;;;22.64;50.04;99913.09;4942052;28;20049;-78
2023/06/19 02:46:29;;;;;;;7.32;5.53;;;23.10;58.90;;;22.65;49.32;99927.53;4927357;29;20067;-78
2023/06/19 02:48:56;;;;;;;7.05;5.55;;;23.10;58.70;;;22.62;49.35;99937.88;4925591;29;20107;-78
2023/06/19 02:51:23;;;;;;;8.27;6.05;;;23.10;58.60;;;22.61;49.55;99944.44;4913849;29;20051;-77
2023/06/19 02:53:50;;;;;;;6.78;5.20;;;23.10;58.70;;;22.58;49.46;99941.50;4929460;29;20044;-78
2023/06/19 02:56:18;;;;;;;8.65;6.05;;;23.10;58.80;;;22.59;49.51;99945.81;4930355;29;20047;-78
2023/06/19 02:58:45;;;;;;;8.32;5.90;;;23.10;58.80;;;22.58;49.25;99957.81;4914449;29;20143;-78
2023/06/19 03:01:12;;;;;;;7.53;5.75;;;23.10;58.50;;;22.62;49.33;99961.53;4914149;29;20083;-78
2023/06/19 03:03:41;;;;;;;7.40;5.82;;;23.10;58.60;;;22.58;49.60;99957.81;4928536;29;20524;-78
2023/06/19 03:06:09;;;;;;;7.30;5.35;;;23.10;58.90;;;22.60;49.86;99966.50;4904498;29;20052;-78
2023/06/19 03:08:37;;;;;;;9.88;6.00;;;23.10;59.10;;;22.61;49.79;99971.63;4929602;29;20138;-78
2023/06/19 03:11:05;;;;;;;8.50;5.88;;;23.10;59.10;;;22.63;49.82;99974.81;4899536;29;20055;-77
2023/06/19 03:13:45;;;;;;;7.68;6.00;;;23.10;59.30;;;22.66;50.19;99973.41;4929096;29;20107;-78
2023/06/19 03:16:13;;;;;;;8.20;5.40;;;23.20;59.30;;;22.63;50.54;99977.53;4926667;29;20075;-78
2023/06/19 03:18:42;;;;;;;7.43;5.28;;;23.20;60.00;;;22.66;50.93;99983.50;4914206;29;20052;-78
2023/06/19 03:21:09;;;;;;;8.85;5.13;;;23.20;60.20;;;22.66;50.86;99978.06;4929691;29;20080;-77
2023/06/19 03:23:36;;;;;;;9.00;5.25;;;23.20;60.20;;;22.70;50.70;99976.34;4930076;29;20055;-78
2023/06/19 03:26:04;;;;;;;6.40;4.85;;;23.20;60.40;;;22.68;50.84;99984.78;4932189;29;20050;-77
2023/06/19 03:28:31;;;;;;;8.20;5.03;;;23.20;60.20;;;22.69;50.84;99989.09;4898980;29;20115;-78
2023/06/19 03:31:00;;;;;;;6.75;5.00;;;23.20;60.10;;;22.71;50.79;99986.09;4913844;29;20044;-77
2023/06/19 03:33:28;;;;;;;6.97;5.00;;;23.20;60.30;;;22.72;51.21;99985.78;4923317;29;20059;-78
2023/06/19 03:35:56;;;;;;;9.70;4.90;;;23.20;60.80;;;22.71;51.19;99986.91;4918483;29;20532;-77
2023/06/19 03:38:44;;;;;;;6.80;4.70;;;23.20;60.60;;;22.71;51.57;99999.69;4925501;29;20071;-78
2023/06/19 03:41:14;;;;;;;10.82;4.88;;;23.20;61.20;;;22.71;50.90;100000.50;4931861;29;20610;-78
2023/06/19 03:43:41;;;;;;;7.65;4.78;;;23.20;60.60;;;22.69;51.61;100005.41;4930384;29;20416;-77
2023/06/19 03:46:08;;;;;;;8.85;4.65;;;23.20;61.40;;;22.70;51.91;100015.22;4925339;29;20047;-77
2023/06/19 03:48:36;;;;;;;6.15;4.07;;;23.20;61.50;;;22.70;51.62;100011.69;4934679;28;20055;-78
2023/06/19 03:51:04;;;;;;;9.35;5.15;;;23.20;61.50;;;22.70;51.37;100020.66;4942544;28;20048;-77
2023/06/19 03:53:32;;;;;;;8.35;4.43;;;23.20;61.20;;;22.68;51.95;100017.41;4934296;29;20138;-77
2023/06/19 03:55:59;;;;;;;6.22;4.10;;;23.20;61.50;;;22.66;51.59;100021.56;4930127;29;20036;-77
2023/06/19 03:58:26;;;;;;;5.00;3.50;;;23.20;61.30;;;22.69;52.40;100020.94;4916388;29;20040;-78
2023/06/19 04:00:53;;;;;;;5.05;3.58;;;23.20;62.40;;;22.66;52.74;100021.56;4939257;29;20075;-77
2023/06/19 04:03:21;;;;;;;6.32;3.72;;;23.20;62.60;;;22.60;52.78;100026.28;4925916;29;20088;-77
2023/06/19 04:05:48;;;;;;;5.38;3.30;;;23.20;62.80;;;22.57;53.02;100026.88;4945270;29;20191;-78
2023/06/19 04:08:17;;;;;;;5.57;3.40;;;23.10;63.00;;;22.56;53.37;100028.81;4951847;28;20107;-77
2023/06/19 04:10:44;;;;;;;4.65;3.10;;;23.10;63.50;;;22.53;53.68;100026.69;4934076;28;20117;-77
2023/06/19 04:13:12;;;;;;;5.30;3.17;;;23.10;64.00;;;22.52;53.40;100033.22;4929842;29;20580;-77
2023/06/19 04:15:39;;;;;;;6.55;3.53;;;23.10;63.40;;;22.50;53.77;100040.88;4933645;29;20040;-75
2023/06/19 04:18:06;;;;;;;4.53;2.92;;;23.10;63.90;;;22.51;54.03;100034.34;4933470;29;20130;-77
2023/06/19 04:20:34;;;;;;;5.40;3.53;;;23.10;64.10;;;22.53;53.43;100048.41;4932454;29;20138;-77
2023/06/19 04:23:01;;;;;;;4.65;2.92;;;23.10;63.90;;;22.55;54.11;100053.56;4919300;29;20634;-77
2023/06/19 04:25:30;;;;;;;6.75;3.17;;;23.10;64.50;;;22.51;54.46;100056.09;4916026;29;20051;-76
2023/06/19 04:27:57;;;;;;;5.95;2.95;;;23.10;64.60;;;22.56;54.38;100057.91;4914476;29;20090;-77
2023/06/19 04:30:25;;;;;;;7.03;3.40;;;23.10;64.60;;;22.57;54.48;100065.75;4932695;29;20052;-77
2023/06/19 04:32:52;;;;;;;5.00;3.25;;;23.20;64.50;;;22.62;54.04;100073.00;4932048;29;20212;-76
2023/06/19 04:35:20;;;;;;;5.70;3.03;;;23.20;64.40;;;22.61;54.11;100072.19;4933120;29;20055;-76
2023/06/19 04:37:48;;;;;;;6.13;3.10;;;23.20;64.20;;;22.63;53.98;100071.88;4932751;29;20053;-77
2023/06/19 04:40:16;;;;;;;6.13;3.25;;;23.20;64.40;;;22.71;54.11;100083.97;4933525;29;20046;-77
2023/06/19 04:42:44;;;;;;;5.90;3.15;;;23.20;64.10;;;22.77;54.46;100080.06;4936267;29;20070;-77
2023/06/19 04:45:12;;;;;;;7.95;3.10;;;23.30;64.60;;;22.82;54.23;100083.47;4931049;29;20126;-77
2023/06/19 04:47:39;;;;;;;4.90;3.05;;;23.30;64.80;;;22.85;54.51;100084.78;4933738;29;20160;-79
2023/06/19 04:50:08;;;;;;;5.97;3.47;;;23.40;64.70;;;22.86;54.09;100087.19;4929734;29;20955;-77
2023/06/19 04:52:37;;;;;;;6.10;3.15;;;23.40;64.40;;;22.87;53.83;100088.00;4923726;29;20071;-77
2023/06/19 04:55:09;;;;;;;5.15;3.22;;;23.40;64.20;;;22.89;54.15;100083.13;4934470;29;20111;-77
2023/06/19 04:57:36;;;;;;;5.72;3.05;;;23.40;64.40;;;22.87;53.58;100090.72;4932799;29;20470;-77
2023/06/19 05:00:09;;;;;;;5.03;3.00;;;23.40;64.00;;;22.87;54.27;100102.41;4930742;29;20051;-77
2023/06/19 05:02:37;;;;;;;6.22;3.40;;;23.40;64.60;;;22.83;54.02;100100.59;4932547;29;20047;-76
2023/06/19 05:05:05;;;;;;;5.47;3.22;;;23.40;64.60;;;22.79;54.40;100105.84;4924325;29;20794;-77
2023/06/19 05:07:32;;;;;;;5.50;3.53;;;23.30;64.80;;;22.76;54.41;100108.34;4914106;29;20040;-77
2023/06/19 05:10:00;;;;;;;5.95;3.10;;;23.30;64.80;;;22.76;54.37;100103.72;4931449;28;20051;-76
2023/06/19 05:12:27;;;;;;;5.38;3.00;;;23.30;64.80;;;22.73;54.49;100111.66;4933687;29;20640;-77
2023/06/19 05:14:54;;;;;;;5.65;3.30;;;23.30;65.00;;;22.76;54.43;100109.16;4943481;28;20055;-77
2023/06/19 05:17:23;;;;;;;7.68;3.28;;;23.30;65.00;;;22.81;54.50;100110.97;4930310;29;20042;-76
2023/06/19 05:19:50;;;;;;;4.65;2.90;;;23.30;65.20;;;22.95;54.87;100119.97;4932304;29;20055;-76
2023/06/19 05:22:18;;;;;;;6.35;3.10;;;23.50;65.60;;;23.00;54.51;100119.06;4932137;29;20048;-77
2023/06/19 05:24:46;;;;;;;5.25;2.80;;;23.50;65.20;;;23.08;54.63;100115.63;4915445;29;20410;-77
2023/06/19 05:27:13;;;;;;;9.65;3.00;;;23.60;65.50;;;23.17;54.48;100121.16;4932689;29;20475;-77
2023/06/19 05:29:40;;;;;;;6.75;2.90;;;23.60;64.90;;;23.22;54.35;100124.59;4931323;29;20070;-77
2023/06/19 05:32:08;;;;;;;4.22;2.65;;;23.70;65.00;;;23.27;54.33;100126.41;4932173;29;20082;-77
2023/06/19 05:34:37;;;;;;;5.05;2.75;;;23.70;65.10;;;23.27;54.38;100131.84;4926489;29;20062;-77
2023/06/19 05:37:04;;;;;;;6.00;2.78;;;23.80;65.00;;;23.25;54.04;100125.91;4931512;29;20048;-76
2023/06/19 05:39:31;;;;;;;4.13;2.72;;;23.70;64.60;;;23.17;54.09;100127.41;4931969;29;20047;-77
2023/06/19 05:41:59;;;;;;;5.47;2.70;;;23.70;64.60;;;23.15;53.79;100126.91;4935148;29;20066;-76
2023/06/19 05:44:26;;;;;;;6.50;3.13;;;23.70;64.30;;;23.16;54.21;100133.16;4931997;29;20519;-77
2023/06/19 05:46:53;;;;;;;5.07;3.05;;;23.70;64.60;;;23.12;54.19;100130.25;4931443;29;20043;-77
2023/06/19 05:49:21;;;;;;;5.00;2.90;;;23.70;64.60;;;23.06;54.27;100129.53;4910271;29;20559;-77
2023/06/19 05:51:50;;;;;;;5.20;2.72;;;23.60;64.80;;;23.00;54.66;100133.47;4927266;29;21148;-76
2023/06/19 05:54:17;;;;;;;5.05;2.70;;;23.60;65.10;;;22.97;54.84;100134.06;4930056;29;20077;-77
2023/06/19 05:56:45;;;;;;;5.13;2.80;;;23.60;65.30;;;22.97;54.87;100142.22;4932237;29;20103;-76
2023/06/19 05:59:14;;;;;;;5.57;2.83;;;23.50;65.40;;;22.98;55.11;100132.16;4932394;29;20131;-77
2023/06/19 06:01:41;;;;;;;5.63;3.38;;;23.50;65.60;;;22.91;55.19;100132.56;4930063;29;20048;-77
2023/06/19 06:04:08;;;;;;;5.07;2.85;;;23.50;65.70;;;22.89;54.75;100132.06;4947735;23;20580;-78
2023/06/19 06:06:36;;;;;;;4.75;3.05;;;23.50;65.60;;;22.88;55.12;100149.44;4940634;28;20046;-79
2023/06/19 06:09:04;;;;;;;4.70;2.83;;;23.50;65.90;;;22.90;54.92;100152.72;4949361;28;20126;-78
2023/06/19 06:11:32;;;;;;;6.78;3.00;;;23.50;65.70;;;22.92;55.04;100164.09;4950577;28;20102;-79
2023/06/19 06:13:59;;;;;;;4.20;2.60;;;23.50;66.10;;;22.94;55.61;100159.16;4949454;28;20048;-79
2023/06/19 06:16:27;;;;;;;5.25;2.70;;;23.50;66.70;;;22.94;55.56;100164.63;4946331;28;20103;-80
2023/06/19 06:18:56;;;;;;;4.88;3.25;;;23.50;66.50;;;22.93;55.61;100170.34;4929632;29;20071;-79
2023/06/19 06:21:24;;;;;;;5.18;2.85;;;23.50;66.40;;;22.90;56.13;100169.03;4930142;29;20434;-80
2023/06/19 06:23:51;;;;;;;4.32;2.50;;;23.40;66.80;;;22.91;55.86;100173.34;4931158;29;20088;-78
2023/06/19 06:26:20;;;;;;;6.47;2.97;;;23.50;66.60;;;22.89;55.46;100167.44;4924688;29;20396;-78
2023/06/19 06:28:47;;;;;;;6.85;3.10;;;23.50;66.50;;;22.93;55.67;100168.41;4925372;29;20122;-78
2023/06/19 06:31:14;;;;;;;6.22;2.65;;;23.50;66.40;;;22.94;55.64;100172.78;4926048;29;20118;-79
2023/06/19 06:33:42;;;;;;;5.20;2.78;;;23.50;66.80;;;22.98;55.88;100173.75;4931363;29;20308;-79
2023/06/19 06:36:09;;;;;;;4.82;2.42;;;23.50;66.90;;;23.00;55.71;100168.84;4931725;29;20085;-78
2023/06/19 06:38:36;;;;;;;4.78;2.33;;;23.50;66.60;;;22.99;55.64;100172.69;4928786;29;20126;-78
2023/06/19 06:41:03;;;;;;;4.55;2.85;;;23.50;66.20;;;23.01;55.48;100180.53;4935609;28;20043;-79
2023/06/19 06:43:32;;;;;;;4.47;2.53;;;23.60;66.20;;;23.04;55.34;100174.50;4942439;28;20126;-78
2023/06/19 06:45:59;;;;;;;5.32;2.85;;;23.60;65.90;;;23.05;55.58;100176.09;4928753;29;20052;-79
2023/06/19 06:48:27;;;;;;;4.38;2.70;;;23.60;66.40;;;23.04;55.33;100180.72;4928476;29;20071;-79
2023/06/19 06:51:00;;;;;;;4.55;2.60;;;23.60;66.20;;;23.04;55.44;100178.00;4929213;29;20047;-80
2023/06/19 06:53:28;;;;;;;6.50;2.50;;;23.60;66.30;;;23.03;55.77;100176.38;4929102;29;20090;-79
2023/06/19 06:55:55;;;;;;;3.70;2.45;;;23.60;66.50;;;23.02;55.71;100182.94;4930681;29;20040;-78
2023/06/19 06:58:23;;;;;;;5.03;2.50;;;23.60;66.20;;;23.03;55.49;100189.97;4929986;29;20047;-78
2023/06/19 07:00:51;;;;;;;5.05;2.20;;;23.60;66.30;;;23.01;55.83;100186.75;4926950;29;20075;-79
2023/06/19 07:03:19;;;;;;;5.05;2.38;;;23.60;66.70;;;22.97;55.47;100188.47;4922526;29;20039;-76
2023/06/19 07:05:46;;;;;;;7.28;2.60;;;23.60;66.10;;;22.99;55.92;100196.34;4923868;29;20131;-78
2023/06/19 07:08:13;;;;;;;4.75;2.72;;;23.60;66.80;;;22.94;55.89;100199.97;4928727;29;20035;-77
2023/06/19 07:10:40;;;;;;;4.88;2.50;;;23.50;67.00;;;22.87;55.97;100207.66;4922911;29;20504;-76
2023/06/19 07:13:07;;;;;;;3.90;2.47;;;23.50;66.90;;;22.85;56.07;100204.47;4922984;29;20044;-78
2023/06/19 07:15:35;;;;;;;4.72;2.60;;;23.50;66.80;;;22.85;55.82;100204.47;4917010;29;20079;-76
2023/06/19 07:18:03;;;;;;;4.47;2.60;;;23.50;66.60;;;22.84;56.11;100203.66;4925156;29;20079;-77
2023/06/19 07:20:31;;;;;;;5.03;2.72;;;23.40;66.90;;;22.81;56.91;100209.69;4923394;29;20497;-76
2023/06/19 07:22:58;;;;;;;6.32;2.92;;;23.40;67.90;;;22.82;56.18;100221.34;4926979;28;20047;-76
2023/06/19 07:25:25;;;;;;;4.22;2.50;;;23.40;67.30;;;22.82;56.76;100221.34;4926744;28;20131;-79
2023/06/19 07:27:53;;;;;;;4.47;2.50;;;23.40;67.90;;;22.82;56.77;100221.34;4923635;29;20504;-76
2023/06/19 07:30:20;;;;;;;6.18;2.72;;;23.40;67.80;;;22.83;56.89;100222.97;4913872;29;20151;-76
2023/06/19 07:32:47;;;;;;;4.82;2.60;;;23.40;68.20;;;22.82;56.99;100233.03;4925955;29;20456;-77
2023/06/19 07:35:16;;;;;;;5.28;2.50;;;23.40;68.50;;;22.80;57.19;100232.53;4918918;29;20050;-77
2023/06/19 07:37:43;;;;;;;4.22;2.63;;;23.40;68.70;;;22.80;58.03;100243.41;4927488;29;20122;-77
2023/06/19 07:40:12;;;;;;;4.70;2.97;;;23.40;69.50;;;22.77;59.31;100245.91;4926611;29;20079;-76
2023/06/19 07:42:40;;;;;;;6.57;2.78;;;23.30;70.80;;;22.74;59.16;100235.63;4924455;29;20055;-76
2023/06/19 07:45:08;;;;;;;5.88;2.92;;;23.30;70.90;;;22.73;59.08;100239.47;4914886;29;20048;-78
2023/06/19 07:47:36;;;;;;;7.45;3.00;;;23.30;70.90;;;22.73;59.45;100234.81;4919299;29;20138;-76
2023/06/19 07:50:04;;;;;;;5.70;2.85;;;23.30;71.30;;;22.73;58.72;100237.53;4911461;29;20044;-77
2023/06/19 07:52:33;;;;;;;5.60;3.03;;;23.30;70.50;;;22.74;59.22;100232.91;4919540;29;20135;-77
2023/06/19 07:55:01;;;;;;;4.82;2.75;;;23.30;71.20;;;22.75;59.21;100231.81;4913995;29;20079;-76
2023/06/19 07:57:28;;;;;;;3.88;2.47;;;23.30;71.20;;;22.77;59.10;100237.75;4912915;29;20111;-76
2023/06/19 07:59:56;;;;;;;7.00;2.80;;;23.30;70.90;;;22.81;58.80;100227.91;4934138;29;20058;-76
2023/06/19 08:02:23;;;;;;;5.28;2.65;;;23.30;70.70;;;22.81;58.48;100230.63;4921610;29;20201;-76
2023/06/19 08:04:50;;;;;;;5.90;2.60;;;23.30;70.50;;;22.82;58.37;100234.94;4930497;29;20051;-77
2023/06/19 08:07:18;;;;;;;6.15;3.28;;;23.30;69.90;;;22.85;59.10;100232.44;4929954;29;20481;-76
2023/06/19 08:09:47;;;;;;;7.05;3.00;;;23.40;70.90;;;22.87;58.21;100229.44;4932399;29;20054;-76
2023/06/19 08:12:14;;;;;;;4.95;2.78;;;23.40;69.80;;;22.86;58.51;100235.97;4936360;28;20126;-76
2023/06/19 08:14:41;;;;;;;5.35;2.90;;;23.40;70.20;;;22.87;57.90;100229.44;4931790;29;20428;-78
2023/06/19 08:17:08;;;;;;;4.60;2.65;;;23.40;69.50;;;22.88;58.57;100231.03;4934283;29;20168;-77
2023/06/19 08:19:35;;;;;;;6.53;3.13;;;23.50;70.20;;;22.90;58.18;100238.94;4928397;29;20047;-78
2023/06/19 08:22:03;;;;;;;7.47;3.08;;;23.50;70.10;;;22.88;57.84;100234.59;4932921;29;20467;-79
2023/06/19 08:24:30;;;;;;;4.88;2.78;;;23.50;69.40;;;22.89;58.16;100240.84;4933994;29;20109;-78
2023/06/19 08:26:59;;;;;;;5.50;2.42;;;23.50;69.70;;;22.90;58.71;100239.75;4932777;29;20067;-78
2023/06/19 08:29:26;;;;;;;6.45;2.70;;;23.50;70.50;;;22.90;58.85;100245.19;4932192;29;20054;-77
2023/06/19 08:31:53;;;;;;;5.90;2.30;;;23.50;70.70;;;22.91;58.69;100243.28;4933532;29;20060;-77
2023/06/19 08:34:20;;;;;;;6.68;2.40;;;23.50;70.80;;;22.99;59.62;100237.97;4930591;29;20847;-76
2023/06/19 08:36:48;;;;;;;7.78;2.78;;;23.50;71.50;;;23.05;57.90;100239.47;4932610;29;20054;-77
2023/06/19 08:39:15;;;;;;;7.47;2.30;;;23.60;69.60;;;23.14;57.61;100236.88;4933012;29;20099;-76
2023/06/19 08:41:43;;;;;;;5.45;2.38;;;23.70;69.50;;;23.22;58.30;100236.16;4931740;29;20048;-77
2023/06/19 08:44:12;;;;;;;6.57;2.30;;;23.70;70.30;;;23.29;57.58;100233.06;4941638;28;20082;-75
2023/06/19 08:46:41;;;;;;;5.63;2.30;;;23.80;69.40;;;23.35;56.45;100240.00;4948687;28;20616;-76
2023/06/19 08:49:10;;;;;;;9.50;2.40;;;23.80;68.10;;;23.39;56.71;100243.75;4928933;29;20050;-76
2023/06/19 08:51:38;;;;;;;4.82;2.10;;;23.90;68.30;;;23.50;55.99;100236.16;4933106;29;20039;-77
2023/06/19 08:54:08;;;;;;;5.53;2.47;;;24.00;67.40;;;23.60;57.18;100247.66;4931259;29;20107;-76
2023/06/19 08:56:39;;;;;;;3.70;2.38;;;24.10;68.60;;;23.70;55.92;100243.13;4929421;29;20044;-77
2023/06/19 08:59:12;;;;;;;5.10;2.22;;;24.20;67.30;;;23.77;55.69;100241.63;4932927;29;20126;-77
2023/06/19 09:01:39;;;;;;;4.63;2.67;;;24.30;66.80;;;23.75;54.24;100237.59;4939518;28;20165;-76
2023/06/19 09:04:11;;;;;;;3.90;2.30;;;24.30;65.40;;;23.78;54.72;100243.25;4948088;28;20075;-76
2023/06/19 09:06:50;;;;;;;4.25;2.50;;;24.40;66.00;;;23.84;55.37;100241.22;4928580;29;20071;-77
2023/06/19 09:09:20;;;;;;;4.35;2.70;;;24.40;66.60;;;23.88;55.52;100237.56;4924137;29;20056;-76
2023/06/19 09:11:59;;;;;;;5.03;2.42;;;24.40;66.80;;;23.96;55.88;100235.22;4926064;29;20062;-76
2023/06/19 09:14:35;;;;;;;4.55;2.22;;;24.50;67.20;;;24.07;55.81;100245.59;4931400;29;20051;-78
2023/06/19 09:17:04;;;;;;;4.82;2.90;;;24.60;66.70;;;24.15;55.78;100238.59;4932909;29;20118;-78
2023/06/19 09:19:32;;;;;;;6.55;3.10;;;24.70;67.00;;;24.11;52.68;100246.59;4930504;29;20055;-75
2023/06/19 09:22:04;;;;;;;4.75;2.90;;;24.70;63.40;;;24.06;54.28;100245.88;4922874;29;20509;-80
2023/06/19 09:24:36;;;;;;;7.53;2.80;;;24.70;65.20;;;24.11;55.29;100251.25;4932067;29;20078;-79
2023/06/19 09:27:13;;;;;;;5.22;3.00;;;24.70;66.20;;;24.17;55.83;100243.75;4930703;29;20065;-79
2023/06/19 09:29:44;;;;;;;4.97;2.97;;;24.80;66.60;;;24.34;56.92;100247.41;4925853;29;20123;-79
2023/06/19 09:32:19;;;;;;;6.75;3.08;;;25.00;68.10;;;24.41;54.16;100238.88;4928780;29;20079;-80
2023/06/19 09:34:50;;;;;;;6.20;2.95;;;25.00;64.70;;;24.42;54.33;100245.91;4921404;29;20516;-79
2023/06/19 09:37:24;;;;;;;4.50;2.60;;;25.00;65.10;;;24.48;53.85;100258.31;4938847;28;20047;-84
2023/06/19 09:39:55;;;;;;;5.07;3.08;;;25.10;64.40;;;24.54;52.85;100246.16;4936821;29;20044;-89
2023/06/19 09:42:30;;;;;;;5.35;2.88;;;25.10;63.20;;;24.58;52.64;100246.34;4929882;29;20075;-90
2023/06/19 09:45:04;;;;;;;6.47;2.80;;;25.20;63.00;;;24.60;52.89;100247.66;4927658;29;20044;-88
2023/06/19 09:47:36;;;;;;;7.20;2.88;;;25.20;63.40;;;24.69;53.09;100246.91;4929503;29;20040;-88
2023/06/19 09:50:06;;;;;;;6.38;3.13;;;25.30;63.30;;;24.76;51.26;100250.00;4927739;29;20103;-89
2023/06/19 09:52:34;;;;;;;4.50;2.65;;;25.30;61.40;;;24.77;51.89;100246.16;4927966;29;20599;-89
2023/06/19 09:55:08;;;;;;;7.47;3.15;;;25.40;62.00;;;24.73;51.28;100248.69;4910297;29;20052;-88
2023/06/19 09:57:38;;;;;;;5.00;2.88;;;25.30;61.10;;;24.65;51.21;100255.72;4933015;28;20140;-87
2023/06/19 10:00:12;;;;;;;7.13;3.33;;;25.30;61.10;;;24.62;51.38;100256.31;4922322;29;20075;-87
2023/06/19 10:02:41;;;;;;;5.15;2.90;;;25.30;61.10;;;24.61;50.71;100254.72;4926682;29;20142;-88
2023/06/19 10:05:13;;;;;;;10.38;3.20;;;25.20;60.60;;;24.57;50.90;100267.38;4930388;29;20035;-87
2023/06/19 10:07:45;;;;;;;5.45;3.20;;;25.20;60.70;;;24.58;52.04;100266.25;4929195;29;20047;-90
2023/06/19 10:10:23;;;;;;;7.95;3.20;;;25.20;61.70;;;24.64;51.36;100266.91;4896804;29;20122;-87
2023/06/19 10:12:51;;;;;;;6.20;3.28;;;25.30;60.90;;;24.67;51.75;100275.28;4930829;29;20530;-87
2023/06/19 10:15:22;;;;;;;6.75;2.85;;;25.30;61.60;;;24.71;51.83;100277.41;4934196;28;20054;-87
2023/06/19 10:17:51;;;;;;;;;;;25.30;61.60;;;24.72;52.38;100268.91;4929621;29;20055;-89
2023/06/19 10:20:31;;;;;;;11.40;3.40;;;25.40;62.20;;;24.75;52.64;100275.69;4935064;28;19926;-89